עמוד ראשי
METAR-TAF:

METAR-TAF

שדות תעופה :

Cape Lisburne, אלסקה, ארצות הברית

קו רוחב: 68-53N, קו אורך: 166-06W, גובה: 4מטר

תצפית מזג אוויר נוכחית

הדו"ח נערך לפני 24דקות, בשעה 20:55 UTC
רוח 25קשר מכיוון דרום/דרום-מערב עם משבים עד 31קשר , משתנה בין דרום/דרום-מזרח ו דרום-מערב
טמפרטורת 11 צלסיוס
לחות 71%
לחץ 1020 hPa
ראות: 16.1קילומטר
עננים פזורים בגובה 14000רגל
עננים בינוניים בגובה 20000רגל
עננים בינוניים בגובה 23000רגל

METAR: PALU 152055Z AUTO 20025G31KT 150V220 10SM SCT140 BKN200 BKN230 11/06 A3013 RMK AO2 PK WND 19036/2006 SLP202 T01050058 57005

זמן: 13:19 (21:19 UTC)


TAF: חסר

תצפיות ותחזיות מזג אוויר לגבי יותר מ- 4,000 שדות תעופה ברחבי העולם. דוחות METAR ו- TAF.

התחנות הזמינות מסומנות בנקודות צהובות ואדומות על גבי המפה.

העבר את העכבר לנקודה הצבעונית על מנת לראות את שם התחנה.

לאחר מכן, לחץ כדי לראות את תוכן ואת תחזיות מזג האוויר.

כדי לשנות את המפה: לחץ על הכפתורים הירוקים עם הפלוס השחור כדי להתקרב; על הכפתור הירוק עם המקף כדי להתרחק; או בחיצים הירוקים למפות סמוכות.


METAR-TAF: